sensor_id;sensor_type;location;lat;lon;timestamp;temperature;humidity
1103;DHT22;538;42.654;23.376;2023-04-01T00:02:08;13.90;10.60
1103;DHT22;538;42.654;23.376;2023-04-01T00:04:35;13.80;10.70
1103;DHT22;538;42.654;23.376;2023-04-01T00:07:02;13.80;10.60
1103;DHT22;538;42.654;23.376;2023-04-01T00:09:29;13.70;10.60
1103;DHT22;538;42.654;23.376;2023-04-01T00:11:57;13.60;10.40
1103;DHT22;538;42.654;23.376;2023-04-01T00:14:25;13.60;10.40
1103;DHT22;538;42.654;23.376;2023-04-01T00:16:52;13.50;10.90
1103;DHT22;538;42.654;23.376;2023-04-01T00:19:19;13.50;10.40
1103;DHT22;538;42.654;23.376;2023-04-01T00:21:46;13.50;10.50
1103;DHT22;538;42.654;23.376;2023-04-01T00:24:13;13.40;11.30
1103;DHT22;538;42.654;23.376;2023-04-01T00:26:40;13.20;11.40
1103;DHT22;538;42.654;23.376;2023-04-01T00:29:09;13.10;11.40
1103;DHT22;538;42.654;23.376;2023-04-01T00:31:36;13.10;11.40
1103;DHT22;538;42.654;23.376;2023-04-01T00:34:03;13.10;11.70
1103;DHT22;538;42.654;23.376;2023-04-01T00:36:30;13.00;12.00
1103;DHT22;538;42.654;23.376;2023-04-01T00:38:57;13.10;11.90
1103;DHT22;538;42.654;23.376;2023-04-01T00:41:26;12.90;11.80
1103;DHT22;538;42.654;23.376;2023-04-01T00:44:14;12.90;12.00
1103;DHT22;538;42.654;23.376;2023-04-01T00:46:42;12.90;12.20
1103;DHT22;538;42.654;23.376;2023-04-01T00:49:09;13.00;12.30
1103;DHT22;538;42.654;23.376;2023-04-01T00:51:37;12.90;12.60
1103;DHT22;538;42.654;23.376;2023-04-01T00:54:07;12.90;12.40
1103;DHT22;538;42.654;23.376;2023-04-01T00:56:36;12.90;12.40
1103;DHT22;538;42.654;23.376;2023-04-01T00:59:08;12.70;12.50
1103;DHT22;538;42.654;23.376;2023-04-01T01:01:37;12.80;12.60
1103;DHT22;538;42.654;23.376;2023-04-01T01:04:05;12.70;12.60
1103;DHT22;538;42.654;23.376;2023-04-01T01:06:39;12.60;12.70
1103;DHT22;538;42.654;23.376;2023-04-01T01:09:29;12.40;12.90
1103;DHT22;538;42.654;23.376;2023-04-01T01:12:04;12.20;13.60
1103;DHT22;538;42.654;23.376;2023-04-01T01:14:41;12.10;14.10
1103;DHT22;538;42.654;23.376;2023-04-01T01:17:17;12.00;13.90
1103;DHT22;538;42.654;23.376;2023-04-01T01:20:02;11.80;14.20
1103;DHT22;538;42.654;23.376;2023-04-01T01:22:52;11.80;14.40
1103;DHT22;538;42.654;23.376;2023-04-01T01:25:32;11.80;14.40
1103;DHT22;538;42.654;23.376;2023-04-01T01:28:24;12.00;14.40
1103;DHT22;538;42.654;23.376;2023-04-01T01:30:57;12.00;13.90
1103;DHT22;538;42.654;23.376;2023-04-01T01:33:38;12.10;14.30
1103;DHT22;538;42.654;23.376;2023-04-01T01:36:12;12.00;13.90
1103;DHT22;538;42.654;23.376;2023-04-01T01:38:40;12.00;13.90
1103;DHT22;538;42.654;23.376;2023-04-01T01:41:09;12.10;13.80
1103;DHT22;538;42.654;23.376;2023-04-01T01:43:40;12.20;13.80
1103;DHT22;538;42.654;23.376;2023-04-01T01:46:11;12.20;13.40
1103;DHT22;538;42.654;23.376;2023-04-01T01:48:40;12.30;13.20
1103;DHT22;538;42.654;23.376;2023-04-01T01:51:10;12.30;12.00
1103;DHT22;538;42.654;23.376;2023-04-01T01:53:37;12.30;11.60
1103;DHT22;538;42.654;23.376;2023-04-01T01:56:05;12.30;11.80
1103;DHT22;538;42.654;23.376;2023-04-01T01:58:36;12.40;11.50
1103;DHT22;538;42.654;23.376;2023-04-01T02:01:07;12.50;11.50
1103;DHT22;538;42.654;23.376;2023-04-01T02:03:37;12.50;10.90
1103;DHT22;538;42.654;23.376;2023-04-01T02:06:08;12.70;11.20
1103;DHT22;538;42.654;23.376;2023-04-01T02:08:39;12.70;11.60
1103;DHT22;538;42.654;23.376;2023-04-01T02:11:09;12.70;12.00
1103;DHT22;538;42.654;23.376;2023-04-01T02:13:41;12.70;10.70
1103;DHT22;538;42.654;23.376;2023-04-01T02:16:12;12.70;10.60
1103;DHT22;538;42.654;23.376;2023-04-01T02:18:41;12.80;11.10
1103;DHT22;538;42.654;23.376;2023-04-01T02:21:10;12.80;11.60
1103;DHT22;538;42.654;23.376;2023-04-01T02:23:39;13.00;11.30
1103;DHT22;538;42.654;23.376;2023-04-01T02:26:07;12.90;10.90
1103;DHT22;538;42.654;23.376;2023-04-01T02:28:38;13.10;10.70
1103;DHT22;538;42.654;23.376;2023-04-01T02:31:08;13.10;10.60
1103;DHT22;538;42.654;23.376;2023-04-01T02:33:38;13.10;10.90
1103;DHT22;538;42.654;23.376;2023-04-01T02:36:06;13.10;10.30
1103;DHT22;538;42.654;23.376;2023-04-01T02:38:39;13.20;9.30
1103;DHT22;538;42.654;23.376;2023-04-01T02:41:06;13.30;9.70
1103;DHT22;538;42.654;23.376;2023-04-01T02:43:33;13.10;9.90
1103;DHT22;538;42.654;23.376;2023-04-01T02:46:00;13.20;9.20
1103;DHT22;538;42.654;23.376;2023-04-01T02:48:27;13.30;9.20
1103;DHT22;538;42.654;23.376;2023-04-01T02:50:54;13.40;9.70
1103;DHT22;538;42.654;23.376;2023-04-01T02:53:22;13.20;9.80
1103;DHT22;538;42.654;23.376;2023-04-01T02:55:50;13.30;10.20
1103;DHT22;538;42.654;23.376;2023-04-01T02:58:18;13.30;10.20
1103;DHT22;538;42.654;23.376;2023-04-01T03:00:45;13.30;9.90
1103;DHT22;538;42.654;23.376;2023-04-01T03:03:12;13.20;10.10
1103;DHT22;538;42.654;23.376;2023-04-01T03:05:40;13.10;10.40
1103;DHT22;538;42.654;23.376;2023-04-01T03:08:07;13.30;10.90
1103;DHT22;538;42.654;23.376;2023-04-01T03:10:34;13.20;11.40
1103;DHT22;538;42.654;23.376;2023-04-01T03:13:02;13.30;11.50
1103;DHT22;538;42.654;23.376;2023-04-01T03:15:29;13.30;11.70
1103;DHT22;538;42.654;23.376;2023-04-01T03:17:56;13.30;12.10
1103;DHT22;538;42.654;23.376;2023-04-01T03:20:23;13.20;12.10
1103;DHT22;538;42.654;23.376;2023-04-01T03:22:50;13.00;11.90
1103;DHT22;538;42.654;23.376;2023-04-01T03:25:18;13.10;12.00
1103;DHT22;538;42.654;23.376;2023-04-01T03:27:45;13.10;12.20
1103;DHT22;538;42.654;23.376;2023-04-01T03:30:13;13.10;12.60
1103;DHT22;538;42.654;23.376;2023-04-01T03:32:40;13.00;12.10
1103;DHT22;538;42.654;23.376;2023-04-01T03:35:08;12.90;12.20
1103;DHT22;538;42.654;23.376;2023-04-01T03:37:35;12.90;12.40
1103;DHT22;538;42.654;23.376;2023-04-01T03:40:03;12.90;12.90
1103;DHT22;538;42.654;23.376;2023-04-01T03:42:31;12.90;12.80
1103;DHT22;538;42.654;23.376;2023-04-01T03:44:58;12.90;13.40
1103;DHT22;538;42.654;23.376;2023-04-01T03:47:26;13.00;14.00
1103;DHT22;538;42.654;23.376;2023-04-01T03:49:53;12.90;14.10
1103;DHT22;538;42.654;23.376;2023-04-01T03:52:21;12.90;14.00
1103;DHT22;538;42.654;23.376;2023-04-01T03:54:48;12.90;13.90
1103;DHT22;538;42.654;23.376;2023-04-01T03:57:15;12.80;13.60
1103;DHT22;538;42.654;23.376;2023-04-01T03:59:42;12.90;13.80
1103;DHT22;538;42.654;23.376;2023-04-01T04:02:09;12.70;13.50
1103;DHT22;538;42.654;23.376;2023-04-01T04:04:38;12.60;13.90
1103;DHT22;538;42.654;23.376;2023-04-01T04:07:05;12.70;14.40
1103;DHT22;538;42.654;23.376;2023-04-01T04:09:33;12.60;14.20
1103;DHT22;538;42.654;23.376;2023-04-01T04:12:00;12.60;14.60
1103;DHT22;538;42.654;23.376;2023-04-01T04:14:27;12.70;14.40
1103;DHT22;538;42.654;23.376;2023-04-01T04:16:54;12.70;13.70
1103;DHT22;538;42.654;23.376;2023-04-01T04:19:21;12.70;13.80
1103;DHT22;538;42.654;23.376;2023-04-01T04:21:49;12.70;14.20
1103;DHT22;538;42.654;23.376;2023-04-01T04:24:16;12.80;13.50
1103;DHT22;538;42.654;23.376;2023-04-01T04:26:43;12.90;13.10
1103;DHT22;538;42.654;23.376;2023-04-01T04:29:10;12.80;13.00
1103;DHT22;538;42.654;23.376;2023-04-01T04:31:37;12.80;12.50
1103;DHT22;538;42.654;23.376;2023-04-01T04:34:05;12.70;12.90
1103;DHT22;538;42.654;23.376;2023-04-01T04:36:32;12.70;12.90
1103;DHT22;538;42.654;23.376;2023-04-01T04:39:00;12.70;12.60
1103;DHT22;538;42.654;23.376;2023-04-01T04:41:28;12.80;12.50
1103;DHT22;538;42.654;23.376;2023-04-01T04:43:56;12.90;12.80
1103;DHT22;538;42.654;23.376;2023-04-01T04:46:24;12.70;12.40
1103;DHT22;538;42.654;23.376;2023-04-01T04:48:51;12.90;12.50
1103;DHT22;538;42.654;23.376;2023-04-01T04:51:20;12.90;12.40
1103;DHT22;538;42.654;23.376;2023-04-01T04:53:48;12.90;12.20
1103;DHT22;538;42.654;23.376;2023-04-01T04:56:19;12.90;12.30
1103;DHT22;538;42.654;23.376;2023-04-01T04:58:47;12.90;12.30
1103;DHT22;538;42.654;23.376;2023-04-01T05:01:16;13.10;12.20
1103;DHT22;538;42.654;23.376;2023-04-01T05:03:46;13.00;12.10
1103;DHT22;538;42.654;23.376;2023-04-01T05:06:15;13.00;12.10
1103;DHT22;538;42.654;23.376;2023-04-01T05:08:43;13.00;12.00
1103;DHT22;538;42.654;23.376;2023-04-01T05:11:13;13.00;12.20
1103;DHT22;538;42.654;23.376;2023-04-01T05:13:43;12.90;12.20
1103;DHT22;538;42.654;23.376;2023-04-01T05:16:12;12.90;12.40
1103;DHT22;538;42.654;23.376;2023-04-01T05:18:40;12.90;12.50
1103;DHT22;538;42.654;23.376;2023-04-01T05:21:08;12.80;12.50
1103;DHT22;538;42.654;23.376;2023-04-01T05:23:36;12.60;12.70
1103;DHT22;538;42.654;23.376;2023-04-01T05:26:04;12.70;13.10
1103;DHT22;538;42.654;23.376;2023-04-01T05:28:31;12.80;13.30
1103;DHT22;538;42.654;23.376;2023-04-01T05:31:00;12.70;13.00
1103;DHT22;538;42.654;23.376;2023-04-01T05:33:28;12.60;13.10
1103;DHT22;538;42.654;23.376;2023-04-01T05:35:57;12.60;13.20
1103;DHT22;538;42.654;23.376;2023-04-01T05:38:31;12.50;13.20
1103;DHT22;538;42.654;23.376;2023-04-01T05:40:59;12.60;13.00
1103;DHT22;538;42.654;23.376;2023-04-01T05:43:26;12.70;12.90
1103;DHT22;538;42.654;23.376;2023-04-01T05:45:53;12.60;13.20
1103;DHT22;538;42.654;23.376;2023-04-01T05:48:21;12.50;12.90
1103;DHT22;538;42.654;23.376;2023-04-01T05:50:48;12.60;12.40
1103;DHT22;538;42.654;23.376;2023-04-01T05:53:15;12.60;12.40
1103;DHT22;538;42.654;23.376;2023-04-01T05:55:43;12.60;12.80
1103;DHT22;538;42.654;23.376;2023-04-01T05:58:10;12.70;12.90
1103;DHT22;538;42.654;23.376;2023-04-01T06:00:41;12.70;12.90
1103;DHT22;538;42.654;23.376;2023-04-01T06:03:08;12.70;12.90
1103;DHT22;538;42.654;23.376;2023-04-01T06:05:40;12.90;12.90
1103;DHT22;538;42.654;23.376;2023-04-01T06:08:11;13.20;12.10
1103;DHT22;538;42.654;23.376;2023-04-01T06:10:49;13.10;12.00
1103;DHT22;538;42.654;23.376;2023-04-01T06:13:25;13.20;12.30
1103;DHT22;538;42.654;23.376;2023-04-01T06:15:59;13.40;12.00
1103;DHT22;538;42.654;23.376;2023-04-01T06:18:44;13.40;12.40
1103;DHT22;538;42.654;23.376;2023-04-01T06:21:40;13.70;11.80
1103;DHT22;538;42.654;23.376;2023-04-01T06:24:25;13.90;11.50
1103;DHT22;538;42.654;23.376;2023-04-01T06:26:59;14.00;10.80
1103;DHT22;538;42.654;23.376;2023-04-01T06:29:48;14.00;10.40
1103;DHT22;538;42.654;23.376;2023-04-01T06:32:40;14.30;10.70
1103;DHT22;538;42.654;23.376;2023-04-01T06:35:28;14.30;10.30
1103;DHT22;538;42.654;23.376;2023-04-01T06:38:17;14.20;10.20
1103;DHT22;538;42.654;23.376;2023-04-01T06:41:16;14.40;10.40
1103;DHT22;538;42.654;23.376;2023-04-01T06:43:58;14.60;10.10
1103;DHT22;538;42.654;23.376;2023-04-01T06:46:37;14.50;10.30
1103;DHT22;538;42.654;23.376;2023-04-01T06:49:26;14.40;10.40
1103;DHT22;538;42.654;23.376;2023-04-01T06:52:01;14.60;11.00
1103;DHT22;538;42.654;23.376;2023-04-01T06:54:34;14.60;10.80
1103;DHT22;538;42.654;23.376;2023-04-01T06:57:19;14.60;11.30
1103;DHT22;538;42.654;23.376;2023-04-01T06:59:47;14.60;11.60
1103;DHT22;538;42.654;23.376;2023-04-01T07:02:24;14.60;11.70
1103;DHT22;538;42.654;23.376;2023-04-01T07:04:54;14.60;11.80
1103;DHT22;538;42.654;23.376;2023-04-01T07:07:29;14.70;11.70
1103;DHT22;538;42.654;23.376;2023-04-01T07:10:06;14.70;11.90
1103;DHT22;538;42.654;23.376;2023-04-01T07:12:41;14.70;12.20
1103;DHT22;538;42.654;23.376;2023-04-01T07:15:17;14.60;12.40
1103;DHT22;538;42.654;23.376;2023-04-01T07:17:47;14.70;12.50
1103;DHT22;538;42.654;23.376;2023-04-01T07:20:20;14.70;12.40
1103;DHT22;538;42.654;23.376;2023-04-01T07:22:51;14.80;12.50
1103;DHT22;538;42.654;23.376;2023-04-01T07:25:23;14.80;12.90
1103;DHT22;538;42.654;23.376;2023-04-01T07:28:00;14.90;12.60
1103;DHT22;538;42.654;23.376;2023-04-01T07:30:33;14.90;12.50
1103;DHT22;538;42.654;23.376;2023-04-01T07:33:06;14.90;12.40
1103;DHT22;538;42.654;23.376;2023-04-01T07:35:39;15.10;12.10
1103;DHT22;538;42.654;23.376;2023-04-01T07:38:17;15.10;12.20
1103;DHT22;538;42.654;23.376;2023-04-01T07:40:51;15.20;12.10
1103;DHT22;538;42.654;23.376;2023-04-01T07:43:40;15.30;11.60
1103;DHT22;538;42.654;23.376;2023-04-01T07:46:21;15.40;11.30
1103;DHT22;538;42.654;23.376;2023-04-01T07:48:54;15.40;12.20
1103;DHT22;538;42.654;23.376;2023-04-01T07:51:27;15.40;11.50
1103;DHT22;538;42.654;23.376;2023-04-01T07:54:03;15.20;11.30
1103;DHT22;538;42.654;23.376;2023-04-01T07:56:40;15.30;11.70
1103;DHT22;538;42.654;23.376;2023-04-01T07:59:14;15.30;11.70
1103;DHT22;538;42.654;23.376;2023-04-01T08:01:47;15.40;11.70
1103;DHT22;538;42.654;23.376;2023-04-01T08:04:35;15.40;11.50
1103;DHT22;538;42.654;23.376;2023-04-01T08:07:11;15.50;11.10
1103;DHT22;538;42.654;23.376;2023-04-01T08:09:45;15.50;11.00
1103;DHT22;538;42.654;23.376;2023-04-01T08:12:25;15.40;11.20
1103;DHT22;538;42.654;23.376;2023-04-01T08:15:04;15.40;11.70
1103;DHT22;538;42.654;23.376;2023-04-01T08:17:41;15.50;11.90
1103;DHT22;538;42.654;23.376;2023-04-01T08:20:20;15.50;11.70
1103;DHT22;538;42.654;23.376;2023-04-01T08:22:51;15.70;11.60
1103;DHT22;538;42.654;23.376;2023-04-01T08:25:24;15.80;12.10
1103;DHT22;538;42.654;23.376;2023-04-01T08:27:58;16.00;11.10
1103;DHT22;538;42.654;23.376;2023-04-01T08:30:30;16.10;10.40
1103;DHT22;538;42.654;23.376;2023-04-01T08:33:04;16.20;10.40
1103;DHT22;538;42.654;23.376;2023-04-01T08:35:38;16.30;9.90
1103;DHT22;538;42.654;23.376;2023-04-01T08:38:11;16.40;9.60
1103;DHT22;538;42.654;23.376;2023-04-01T08:41:00;16.60;9.70
1103;DHT22;538;42.654;23.376;2023-04-01T08:43:54;16.50;10.10
1103;DHT22;538;42.654;23.376;2023-04-01T08:46:53;16.60;9.80
1103;DHT22;538;42.654;23.376;2023-04-01T08:49:49;16.60;9.30
1103;DHT22;538;42.654;23.376;2023-04-01T08:52:33;16.50;10.00
1103;DHT22;538;42.654;23.376;2023-04-01T08:55:30;16.60;8.80
1103;DHT22;538;42.654;23.376;2023-04-01T08:58:22;16.60;8.90
1103;DHT22;538;42.654;23.376;2023-04-01T09:00:57;16.60;8.80
1103;DHT22;538;42.654;23.376;2023-04-01T09:03:41;16.70;9.40
1103;DHT22;538;42.654;23.376;2023-04-01T09:06:28;16.80;7.50
1103;DHT22;538;42.654;23.376;2023-04-01T09:09:41;16.90;7.80
1103;DHT22;538;42.654;23.376;2023-04-01T09:12:24;17.10;7.90
1103;DHT22;538;42.654;23.376;2023-04-01T09:18:15;17.20;7.30
1103;DHT22;538;42.654;23.376;2023-04-01T09:20:58;17.30;7.80
1103;DHT22;538;42.654;23.376;2023-04-01T09:23:48;17.50;7.20
1103;DHT22;538;42.654;23.376;2023-04-01T09:26:47;17.70;7.60
1103;DHT22;538;42.654;23.376;2023-04-01T09:29:29;17.90;6.00
1103;DHT22;538;42.654;23.376;2023-04-01T09:32:18;18.00;6.60
1103;DHT22;538;42.654;23.376;2023-04-01T09:34:55;18.20;6.90
1103;DHT22;538;42.654;23.376;2023-04-01T09:37:34;18.30;6.10
1103;DHT22;538;42.654;23.376;2023-04-01T09:40:16;18.40;5.50
1103;DHT22;538;42.654;23.376;2023-04-01T09:42:49;18.50;5.30
1103;DHT22;538;42.654;23.376;2023-04-01T09:45:37;18.60;5.10
1103;DHT22;538;42.654;23.376;2023-04-01T09:48:17;18.80;4.70
1103;DHT22;538;42.654;23.376;2023-04-01T09:50:55;18.70;5.00
1103;DHT22;538;42.654;23.376;2023-04-01T09:53:37;18.90;4.10
1103;DHT22;538;42.654;23.376;2023-04-01T09:56:36;19.00;4.00
1103;DHT22;538;42.654;23.376;2023-04-01T09:59:33;19.10;3.70
1103;DHT22;538;42.654;23.376;2023-04-01T10:08:58;19.40;4.00
1103;DHT22;538;42.654;23.376;2023-04-01T10:15:09;19.60;3.70
1103;DHT22;538;42.654;23.376;2023-04-01T10:18:10;19.60;3.40
1103;DHT22;538;42.654;23.376;2023-04-01T10:27:21;19.70;3.70
1103;DHT22;538;42.654;23.376;2023-04-01T10:33:38;19.80;4.00
1103;DHT22;538;42.654;23.376;2023-04-01T10:36:47;19.90;4.00
1103;DHT22;538;42.654;23.376;2023-04-01T10:42:58;19.90;3.20
1103;DHT22;538;42.654;23.376;2023-04-01T10:52:09;19.90;3.30
1103;DHT22;538;42.654;23.376;2023-04-01T10:54:56;19.70;3.30
1103;DHT22;538;42.654;23.376;2023-04-01T10:57:50;19.00;3.10
1103;DHT22;538;42.654;23.376;2023-04-01T11:00:38;19.50;3.80
1103;DHT22;538;42.654;23.376;2023-04-01T11:03:56;19.50;3.60
1103;DHT22;538;42.654;23.376;2023-04-01T11:07:14;19.40;3.90
1103;DHT22;538;42.654;23.376;2023-04-01T11:13:23;19.30;3.80
1103;DHT22;538;42.654;23.376;2023-04-01T11:19:14;19.10;2.10
1103;DHT22;538;42.654;23.376;2023-04-01T11:22:10;19.00;2.70
1103;DHT22;538;42.654;23.376;2023-04-01T11:27:51;18.90;3.40
1103;DHT22;538;42.654;23.376;2023-04-01T11:30:33;18.80;3.50
1103;DHT22;538;42.654;23.376;2023-04-01T11:33:03;18.70;1.60
1103;DHT22;538;42.654;23.376;2023-04-01T11:35:50;18.40;1.00
1103;DHT22;538;42.654;23.376;2023-04-01T11:38:31;18.30;1.00
1103;DHT22;538;42.654;23.376;2023-04-01T11:41:13;18.10;1.00
1103;DHT22;538;42.654;23.376;2023-04-01T11:43:49;18.10;1.80
1103;DHT22;538;42.654;23.376;2023-04-01T11:46:27;17.80;4.70
1103;DHT22;538;42.654;23.376;2023-04-01T11:49:05;17.70;5.40
1103;DHT22;538;42.654;23.376;2023-04-01T11:51:45;17.20;8.60
1103;DHT22;538;42.654;23.376;2023-04-01T11:54:33;16.40;10.10
1103;DHT22;538;42.654;23.376;2023-04-01T11:57:14;15.80;15.00
1103;DHT22;538;42.654;23.376;2023-04-01T11:59:56;15.10;20.00
1103;DHT22;538;42.654;23.376;2023-04-01T12:02:31;14.10;26.00
1103;DHT22;538;42.654;23.376;2023-04-01T12:05:26;13.50;34.90
1103;DHT22;538;42.654;23.376;2023-04-01T12:08:07;13.20;46.50
1103;DHT22;538;42.654;23.376;2023-04-01T12:10:40;12.70;54.40
1103;DHT22;538;42.654;23.376;2023-04-01T12:13:19;12.60;57.70
1103;DHT22;538;42.654;23.376;2023-04-01T12:16:04;12.50;61.70
1103;DHT22;538;42.654;23.376;2023-04-01T12:18:39;12.60;59.90
1103;DHT22;538;42.654;23.376;2023-04-01T12:21:17;12.60;62.60
1103;DHT22;538;42.654;23.376;2023-04-01T12:26:52;12.80;56.50
1103;DHT22;538;42.654;23.376;2023-04-01T12:29:51;12.80;56.20
1103;DHT22;538;42.654;23.376;2023-04-01T12:32:25;13.00;53.80
1103;DHT22;538;42.654;23.376;2023-04-01T12:35:13;13.20;54.00
1103;DHT22;538;42.654;23.376;2023-04-01T12:37:55;13.40;54.90
1103;DHT22;538;42.654;23.376;2023-04-01T12:46:13;13.70;53.00
1103;DHT22;538;42.654;23.376;2023-04-01T12:49:09;13.70;51.50
1103;DHT22;538;42.654;23.376;2023-04-01T12:52:05;13.60;51.40
1103;DHT22;538;42.654;23.376;2023-04-01T12:55:18;13.50;49.90
1103;DHT22;538;42.654;23.376;2023-04-01T12:58:18;13.50;50.10
1103;DHT22;538;42.654;23.376;2023-04-01T13:04:05;13.50;53.50
1103;DHT22;538;42.654;23.376;2023-04-01T13:06:49;13.60;54.70
1103;DHT22;538;42.654;23.376;2023-04-01T13:09:33;13.70;55.40
1103;DHT22;538;42.654;23.376;2023-04-01T13:12:22;13.60;56.00
1103;DHT22;538;42.654;23.376;2023-04-01T13:17:52;13.80;55.10
1103;DHT22;538;42.654;23.376;2023-04-01T13:20:28;13.90;53.30
1103;DHT22;538;42.654;23.376;2023-04-01T13:23:05;14.70;65.10
1103;DHT22;538;42.654;23.376;2023-04-01T13:25:40;14.90;66.60
1103;DHT22;538;42.654;23.376;2023-04-01T13:28:16;16.80;61.50
1103;DHT22;538;42.654;23.376;2023-04-01T13:30:49;19.10;40.90
1103;DHT22;538;42.654;23.376;2023-04-01T13:33:27;21.30;18.60
1103;DHT22;538;42.654;23.376;2023-04-01T13:36:06;23.30;14.40
1103;DHT22;538;42.654;23.376;2023-04-01T13:42:10;25.10;6.70
1103;DHT22;538;42.654;23.376;2023-04-01T13:44:43;24.90;6.60
1103;DHT22;538;42.654;23.376;2023-04-01T13:50:34;25.50;5.60
1103;DHT22;538;42.654;23.376;2023-04-01T13:53:19;25.90;5.10
1103;DHT22;538;42.654;23.376;2023-04-01T13:56:01;26.50;3.60
1103;DHT22;538;42.654;23.376;2023-04-01T13:58:50;27.20;2.40
1103;DHT22;538;42.654;23.376;2023-04-01T14:01:28;27.90;1.40
1103;DHT22;538;42.654;23.376;2023-04-01T14:04:22;28.60;1.00
1103;DHT22;538;42.654;23.376;2023-04-01T14:07:00;29.10;1.00
1103;DHT22;538;42.654;23.376;2023-04-01T14:09:56;29.40;1.00
1103;DHT22;538;42.654;23.376;2023-04-01T14:12:30;29.20;1.00
1103;DHT22;538;42.654;23.376;2023-04-01T14:15:14;28.90;1.00
1103;DHT22;538;42.654;23.376;2023-04-01T14:18:02;28.60;1.00
1103;DHT22;538;42.654;23.376;2023-04-01T14:20:39;27.90;1.00
1103;DHT22;538;42.654;23.376;2023-04-01T14:23:31;26.80;1.00
1103;DHT22;538;42.654;23.376;2023-04-01T14:26:10;25.80;2.10
1103;DHT22;538;42.654;23.376;2023-04-01T14:28:43;24.10;3.60
1103;DHT22;538;42.654;23.376;2023-04-01T14:31:26;23.40;4.80
1103;DHT22;538;42.654;23.376;2023-04-01T14:34:04;23.30;5.50
1103;DHT22;538;42.654;23.376;2023-04-01T14:36:43;22.80;6.60
1103;DHT22;538;42.654;23.376;2023-04-01T14:39:27;22.40;7.00
1103;DHT22;538;42.654;23.376;2023-04-01T14:42:09;21.40;8.20
1103;DHT22;538;42.654;23.376;2023-04-01T14:44:52;21.30;8.70
1103;DHT22;538;42.654;23.376;2023-04-01T14:47:46;21.40;9.80
1103;DHT22;538;42.654;23.376;2023-04-01T14:50:16;21.40;10.20
1103;DHT22;538;42.654;23.376;2023-04-01T14:52:49;22.00;9.40
1103;DHT22;538;42.654;23.376;2023-04-01T14:55:25;22.10;9.90
1103;DHT22;538;42.654;23.376;2023-04-01T14:58:08;22.40;9.00
1103;DHT22;538;42.654;23.376;2023-04-01T15:00:49;22.60;8.10
1103;DHT22;538;42.654;23.376;2023-04-01T15:03:23;22.70;7.60
1103;DHT22;538;42.654;23.376;2023-04-01T15:05:56;22.90;8.00
1103;DHT22;538;42.654;23.376;2023-04-01T15:08:29;23.10;7.40
1103;DHT22;538;42.654;23.376;2023-04-01T15:11:24;23.30;7.10
1103;DHT22;538;42.654;23.376;2023-04-01T15:14:28;23.50;6.70
1103;DHT22;538;42.654;23.376;2023-04-01T15:17:20;23.60;6.80
1103;DHT22;538;42.654;23.376;2023-04-01T15:23:01;23.40;6.10
1103;DHT22;538;42.654;23.376;2023-04-01T15:25:42;22.80;6.20
1103;DHT22;538;42.654;23.376;2023-04-01T15:28:22;21.90;7.30
1103;DHT22;538;42.654;23.376;2023-04-01T15:30:57;21.10;7.80
1103;DHT22;538;42.654;23.376;2023-04-01T15:33:39;20.60;9.10
1103;DHT22;538;42.654;23.376;2023-04-01T15:36:19;20.10;10.10
1103;DHT22;538;42.654;23.376;2023-04-01T15:38:51;19.60;10.50
1103;DHT22;538;42.654;23.376;2023-04-01T15:41:23;19.10;11.40
1103;DHT22;538;42.654;23.376;2023-04-01T15:49:31;18.20;14.30
1103;DHT22;538;42.654;23.376;2023-04-01T15:52:08;18.20;15.00
1103;DHT22;538;42.654;23.376;2023-04-01T15:55:17;18.00;15.80
1103;DHT22;538;42.654;23.376;2023-04-01T15:57:56;16.70;10.10
1103;DHT22;538;42.654;23.376;2023-04-01T16:00:29;15.60;11.40
1103;DHT22;538;42.654;23.376;2023-04-01T16:03:30;14.70;13.50
1103;DHT22;538;42.654;23.376;2023-04-01T16:09:22;13.10;20.80
1103;DHT22;538;42.654;23.376;2023-04-01T16:11:56;12.40;25.50
1103;DHT22;538;42.654;23.376;2023-04-01T16:14:34;11.90;31.20
1103;DHT22;538;42.654;23.376;2023-04-01T16:17:16;11.50;38.30
1103;DHT22;538;42.654;23.376;2023-04-01T16:19:53;10.80;45.40
1103;DHT22;538;42.654;23.376;2023-04-01T16:22:25;10.50;51.50
1103;DHT22;538;42.654;23.376;2023-04-01T16:24:59;10.30;57.90
1103;DHT22;538;42.654;23.376;2023-04-01T16:27:35;9.90;63.80
1103;DHT22;538;42.654;23.376;2023-04-01T16:30:19;9.70;67.40
1103;DHT22;538;42.654;23.376;2023-04-01T16:32:51;9.70;70.40
1103;DHT22;538;42.654;23.376;2023-04-01T16:35:27;9.60;73.20
1103;DHT22;538;42.654;23.376;2023-04-01T16:38:03;9.50;74.50
1103;DHT22;538;42.654;23.376;2023-04-01T16:40:41;9.50;74.50
1103;DHT22;538;42.654;23.376;2023-04-01T16:43:19;9.70;75.90
1103;DHT22;538;42.654;23.376;2023-04-01T16:45:55;9.60;75.40
1103;DHT22;538;42.654;23.376;2023-04-01T16:48:30;9.60;71.10
1103;DHT22;538;42.654;23.376;2023-04-01T16:51:03;9.60;71.00
1103;DHT22;538;42.654;23.376;2023-04-01T16:53:37;9.70;66.80
1103;DHT22;538;42.654;23.376;2023-04-01T16:56:12;9.70;64.30
1103;DHT22;538;42.654;23.376;2023-04-01T16:58:55;9.70;63.40
1103;DHT22;538;42.654;23.376;2023-04-01T17:01:26;9.70;58.60
1103;DHT22;538;42.654;23.376;2023-04-01T17:03:59;9.60;58.50
1103;DHT22;538;42.654;23.376;2023-04-01T17:06:36;9.70;58.90
1103;DHT22;538;42.654;23.376;2023-04-01T17:09:21;9.60;58.70
1103;DHT22;538;42.654;23.376;2023-04-01T17:11:56;9.70;57.20
1103;DHT22;538;42.654;23.376;2023-04-01T17:14:27;9.70;54.80
1103;DHT22;538;42.654;23.376;2023-04-01T17:17:13;9.70;53.90
1103;DHT22;538;42.654;23.376;2023-04-01T17:19:53;9.70;53.10
1103;DHT22;538;42.654;23.376;2023-04-01T17:22:32;9.50;51.30
1103;DHT22;538;42.654;23.376;2023-04-01T17:25:17;9.60;50.70
1103;DHT22;538;42.654;23.376;2023-04-01T17:27:52;9.40;52.50
1103;DHT22;538;42.654;23.376;2023-04-01T17:30:30;9.40;51.40
1103;DHT22;538;42.654;23.376;2023-04-01T17:35:58;9.50;51.70
1103;DHT22;538;42.654;23.376;2023-04-01T17:41:31;9.30;50.70
1103;DHT22;538;42.654;23.376;2023-04-01T17:44:17;9.30;49.90
1103;DHT22;538;42.654;23.376;2023-04-01T17:47:17;9.40;49.50
1103;DHT22;538;42.654;23.376;2023-04-01T17:49:56;9.20;49.80
1103;DHT22;538;42.654;23.376;2023-04-01T17:52:30;9.20;50.70
1103;DHT22;538;42.654;23.376;2023-04-01T17:55:15;9.20;51.30
1103;DHT22;538;42.654;23.376;2023-04-01T17:57:50;9.30;52.60
1103;DHT22;538;42.654;23.376;2023-04-01T18:00:24;9.30;52.60
1103;DHT22;538;42.654;23.376;2023-04-01T18:03:00;9.30;51.30
1103;DHT22;538;42.654;23.376;2023-04-01T18:05:57;9.30;51.60
1103;DHT22;538;42.654;23.376;2023-04-01T18:08:40;9.40;52.90
1103;DHT22;538;42.654;23.376;2023-04-01T18:11:18;9.50;53.10
1103;DHT22;538;42.654;23.376;2023-04-01T18:14:07;9.50;52.10
1103;DHT22;538;42.654;23.376;2023-04-01T18:16:51;9.60;52.30
1103;DHT22;538;42.654;23.376;2023-04-01T18:19:28;9.60;52.20
1103;DHT22;538;42.654;23.376;2023-04-01T18:22:06;9.60;50.10
1103;DHT22;538;42.654;23.376;2023-04-01T18:24:42;9.60;50.20
1103;DHT22;538;42.654;23.376;2023-04-01T18:27:16;9.60;50.30
1103;DHT22;538;42.654;23.376;2023-04-01T18:29:49;9.60;50.70
1103;DHT22;538;42.654;23.376;2023-04-01T18:32:30;9.40;49.50